createdAt,value
2023-01-21T00:01:09.594Z,2.89
2023-01-21T00:03:37.669Z,2.77
2023-01-21T00:06:08.086Z,2.88
2023-01-21T00:08:36.006Z,3.05
2023-01-21T00:11:07.569Z,3.01
2023-01-21T00:13:36.338Z,3.00
2023-01-21T00:16:05.105Z,2.99
2023-01-21T00:18:34.247Z,2.86
2023-01-21T00:21:02.743Z,2.63
2023-01-21T00:23:32.075Z,2.43
2023-01-21T00:26:00.341Z,2.51
2023-01-21T00:28:29.861Z,2.59
2023-01-21T00:30:59.068Z,2.55
2023-01-21T00:33:27.548Z,2.52
2023-01-21T00:36:01.677Z,2.34
2023-01-21T00:38:31.161Z,2.37
2023-01-21T00:41:03.428Z,2.43
2023-01-21T00:43:31.458Z,2.40
2023-01-21T00:45:59.445Z,2.44
2023-01-21T00:48:28.573Z,2.20
2023-01-21T00:51:00.563Z,2.38
2023-01-21T00:53:29.498Z,2.55
2023-01-21T00:56:01.580Z,2.55
2023-01-21T00:58:29.972Z,2.61
2023-01-21T01:01:04.544Z,2.31
2023-01-21T01:03:32.886Z,2.39
2023-01-21T01:06:04.810Z,2.56
2023-01-21T01:08:33.111Z,2.48
2023-01-21T01:11:03.139Z,2.01
2023-01-21T01:13:31.402Z,2.16
2023-01-21T01:16:00.290Z,2.32
2023-01-21T01:18:30.258Z,2.20
2023-01-21T01:20:58.522Z,1.98
2023-01-21T01:23:27.113Z,1.92
2023-01-21T01:25:59.669Z,2.08
2023-01-21T01:28:29.606Z,1.55
2023-01-21T01:30:58.627Z,1.63
2023-01-21T01:33:27.929Z,1.58
2023-01-21T01:35:55.949Z,1.70
2023-01-21T01:38:24.292Z,1.91
2023-01-21T01:40:53.791Z,1.84
2023-01-21T01:43:24.174Z,1.71
2023-01-21T01:45:54.080Z,1.73
2023-01-21T01:48:27.447Z,1.75
2023-01-21T01:50:57.712Z,1.57
2023-01-21T01:53:28.008Z,1.65
2023-01-21T01:55:56.514Z,1.68
2023-01-21T01:58:24.730Z,1.81
2023-01-21T02:00:54.004Z,1.88
2023-01-21T02:03:39.538Z,2.13
2023-01-21T02:06:08.018Z,1.53
2023-01-21T02:08:36.522Z,1.35
2023-01-21T02:11:11.899Z,1.51
2023-01-21T02:13:41.543Z,1.94
2023-01-21T02:16:32.796Z,2.22
2023-01-21T02:19:13.501Z,2.36
2023-01-21T02:21:55.717Z,2.56
2023-01-21T02:25:09.388Z,2.67
2023-01-21T02:27:58.446Z,2.71
2023-01-21T02:30:43.006Z,2.80
2023-01-21T02:33:28.929Z,2.56
2023-01-21T02:36:05.815Z,2.67
2023-01-21T02:38:42.163Z,2.23
2023-01-21T02:41:22.514Z,1.99
2023-01-21T02:43:58.506Z,2.03
2023-01-21T02:46:32.759Z,2.05
2023-01-21T02:49:08.445Z,1.98
2023-01-21T02:51:36.610Z,2.12
2023-01-21T02:54:14.759Z,1.72
2023-01-21T02:56:44.716Z,1.60
2023-01-21T02:59:14.072Z,1.75
2023-01-21T03:01:52.078Z,1.59
2023-01-21T03:04:52.857Z,1.19
2023-01-21T03:07:28.713Z,1.43
2023-01-21T03:10:01.361Z,1.50
2023-01-21T03:12:35.915Z,1.51
2023-01-21T03:15:26.277Z,1.56
2023-01-21T03:18:01.082Z,1.43
2023-01-21T03:20:34.236Z,1.15
2023-01-21T03:23:06.503Z,1.02
2023-01-21T03:25:36.229Z,0.89
2023-01-21T03:28:09.092Z,0.97
2023-01-21T03:30:38.449Z,1.01
2023-01-21T03:33:08.690Z,1.43
2023-01-21T03:35:42.658Z,1.68
2023-01-21T03:38:15.969Z,1.30
2023-01-21T03:40:49.841Z,0.89
2023-01-21T03:43:17.909Z,1.14
2023-01-21T03:45:50.518Z,1.72
2023-01-21T03:48:25.316Z,1.97
2023-01-21T03:51:00.537Z,2.13
2023-01-21T03:53:28.938Z,2.13
2023-01-21T03:55:56.851Z,2.13
2023-01-21T03:58:24.730Z,1.77
2023-01-21T04:00:52.676Z,1.72
2023-01-21T04:03:20.554Z,2.00
2023-01-21T04:05:48.451Z,1.69
2023-01-21T04:08:17.728Z,1.81
2023-01-21T04:10:45.728Z,1.82
2023-01-21T04:13:13.603Z,1.50
2023-01-21T04:15:41.481Z,1.42
2023-01-21T04:18:09.380Z,1.42
2023-01-21T04:20:38.321Z,1.70
2023-01-21T04:23:06.253Z,1.87
2023-01-21T04:25:35.522Z,2.21
2023-01-21T04:28:03.415Z,2.40
2023-01-21T04:30:31.396Z,2.34
2023-01-21T04:32:59.316Z,1.69
2023-01-21T04:35:27.473Z,1.75
2023-01-21T04:37:55.433Z,1.93
2023-01-21T04:40:23.326Z,2.25
2023-01-21T04:42:52.640Z,2.28
2023-01-21T04:45:20.885Z,2.02
2023-01-21T04:47:48.843Z,2.05
2023-01-21T04:50:18.064Z,1.62
2023-01-21T04:52:46.087Z,1.49
2023-01-21T04:55:14.021Z,1.52
2023-01-21T04:57:41.917Z,1.35
2023-01-21T05:00:12.395Z,1.75
2023-01-21T05:02:40.337Z,1.96
2023-01-21T05:05:08.829Z,1.25
2023-01-21T05:07:36.783Z,1.51
2023-01-21T05:10:05.283Z,1.89
2023-01-21T05:12:33.258Z,2.13
2023-01-21T05:15:01.175Z,2.19
2023-01-21T05:17:30.467Z,2.20
2023-01-21T05:19:58.366Z,2.04
2023-01-21T05:22:26.311Z,1.91
2023-01-21T05:24:54.212Z,1.86
2023-01-21T05:27:22.088Z,2.08
2023-01-21T05:29:50.065Z,1.82
2023-01-21T05:32:17.981Z,1.94
2023-01-21T05:34:47.275Z,2.03
2023-01-21T05:37:15.186Z,1.94
2023-01-21T05:39:43.646Z,1.90
2023-01-21T05:42:11.646Z,1.50
2023-01-21T05:44:39.557Z,1.66
2023-01-21T05:47:08.839Z,1.59
2023-01-21T05:49:37.058Z,1.51
2023-01-21T05:52:06.667Z,1.48
2023-01-21T05:54:34.567Z,1.58
2023-01-21T05:57:02.477Z,1.63
2023-01-21T05:59:30.381Z,1.77
2023-01-21T06:01:58.285Z,1.73
2023-01-21T06:04:30.656Z,1.48
2023-01-21T06:06:58.729Z,1.54
2023-01-21T06:09:28.001Z,1.65
2023-01-21T06:11:55.916Z,1.61
2023-01-21T06:14:23.807Z,1.72
2023-01-21T06:16:51.702Z,1.60
2023-01-21T06:19:19.786Z,1.43
2023-01-21T06:21:47.708Z,1.51
2023-01-21T06:24:15.625Z,1.81
2023-01-21T06:26:44.939Z,1.86
2023-01-21T06:29:12.825Z,1.95
2023-01-21T06:31:41.249Z,2.02
2023-01-21T06:34:10.974Z,1.93
2023-01-21T06:36:38.982Z,2.06
2023-01-21T06:39:06.852Z,2.13
2023-01-21T06:41:34.730Z,2.21
2023-01-21T06:44:04.267Z,2.12
2023-01-21T06:46:32.211Z,2.14
2023-01-21T06:49:00.195Z,2.33
2023-01-21T06:51:28.160Z,2.52
2023-01-21T06:53:56.194Z,2.55
2023-01-21T06:56:24.775Z,2.71
2023-01-21T06:58:52.662Z,2.85
2023-01-21T07:01:21.968Z,3.01
2023-01-21T07:03:49.901Z,3.15
2023-01-21T07:06:17.806Z,3.20
2023-01-21T07:08:45.745Z,3.29
2023-01-21T07:11:13.618Z,3.40
2023-01-21T07:13:41.522Z,3.50
2023-01-21T07:16:10.047Z,3.58
2023-01-21T07:18:39.406Z,3.56
2023-01-21T07:21:07.299Z,3.77
2023-01-21T07:23:35.217Z,3.82
2023-01-21T07:26:03.128Z,3.94
2023-01-21T07:28:31.044Z,4.08
2023-01-21T07:31:00.114Z,4.28
2023-01-21T07:33:28.220Z,4.52
2023-01-21T07:35:57.544Z,4.52
2023-01-21T07:38:25.538Z,4.56
2023-01-21T07:40:53.428Z,4.56
2023-01-21T07:43:21.342Z,4.65
2023-01-21T07:45:49.523Z,4.60
2023-01-21T07:48:17.460Z,4.77
2023-01-21T07:50:45.427Z,4.69
2023-01-21T07:53:15.032Z,4.97
2023-01-21T07:55:43.019Z,5.02
2023-01-21T07:58:11.031Z,5.18
2023-01-21T08:00:39.602Z,5.32
2023-01-21T08:03:07.530Z,5.39
2023-01-21T08:05:35.523Z,5.57
2023-01-21T08:08:03.422Z,5.73
2023-01-21T08:10:32.699Z,5.87
2023-01-21T08:13:01.967Z,5.96
2023-01-21T08:15:29.912Z,5.82
2023-01-21T08:17:57.822Z,5.95
2023-01-21T08:20:25.752Z,6.14
2023-01-21T08:22:53.722Z,6.19
2023-01-21T08:25:21.609Z,6.21
2023-01-21T08:27:50.931Z,6.39
2023-01-21T08:30:19.224Z,6.53
2023-01-21T08:32:47.259Z,6.46
2023-01-21T08:35:15.577Z,6.37
2023-01-21T08:37:43.669Z,6.52
2023-01-21T08:40:12.815Z,6.49
2023-01-21T08:42:40.759Z,6.49
2023-01-21T08:45:12.367Z,6.45
2023-01-21T08:47:41.672Z,6.70
2023-01-21T08:50:11.792Z,6.71
2023-01-21T08:52:39.750Z,6.88
2023-01-21T08:55:08.442Z,7.03
2023-01-21T08:57:36.367Z,7.18
2023-01-21T09:00:05.451Z,7.27
2023-01-21T09:02:34.739Z,7.50
2023-01-21T09:05:02.649Z,7.71
2023-01-21T09:07:30.513Z,8.01
2023-01-21T09:09:58.387Z,8.12
2023-01-21T09:12:26.323Z,8.38
2023-01-21T09:14:54.232Z,8.50
2023-01-21T09:17:22.841Z,8.70
2023-01-21T09:19:53.593Z,8.75
2023-01-21T09:22:22.514Z,8.76
2023-01-21T09:24:50.411Z,9.06
2023-01-21T09:27:18.324Z,9.14
2023-01-21T09:29:46.754Z,8.86
2023-01-21T09:32:14.688Z,8.88
2023-01-21T09:34:42.595Z,8.72
2023-01-21T09:37:11.886Z,8.79
2023-01-21T09:39:39.779Z,8.71
2023-01-21T09:42:18.961Z,8.63
2023-01-21T09:44:50.426Z,8.76
2023-01-21T09:47:23.746Z,8.98
2023-01-21T09:49:55.383Z,9.12
2023-01-21T09:52:30.401Z,9.38
2023-01-21T09:54:59.679Z,9.53
2023-01-21T09:57:53.959Z,9.49
2023-01-21T10:00:34.800Z,9.52
2023-01-21T10:03:14.161Z,9.30
2023-01-21T10:06:11.915Z,9.25
2023-01-21T10:09:04.886Z,9.11
2023-01-21T10:11:48.387Z,9.34
2023-01-21T10:14:30.214Z,9.49
2023-01-21T10:17:07.123Z,9.57
2023-01-21T10:19:39.956Z,9.64
2023-01-21T10:22:13.546Z,9.78
2023-01-21T10:24:47.726Z,9.40
2023-01-21T10:27:19.703Z,9.35
2023-01-21T10:29:49.310Z,9.12
2023-01-21T10:32:22.378Z,8.94
2023-01-21T10:34:53.039Z,8.61
2023-01-21T10:37:27.845Z,8.59
2023-01-21T10:40:04.313Z,8.68
2023-01-21T10:42:58.620Z,8.75
2023-01-21T10:45:38.695Z,8.85
2023-01-21T10:48:16.785Z,8.90
2023-01-21T10:50:54.568Z,8.88
2023-01-21T10:53:30.575Z,9.11
2023-01-21T10:56:12.773Z,8.99
2023-01-21T10:58:46.143Z,9.13
2023-01-21T11:01:19.805Z,9.08
2023-01-21T11:03:51.030Z,9.09
2023-01-21T11:06:20.772Z,9.31
2023-01-21T11:08:52.397Z,9.49
2023-01-21T11:11:27.923Z,9.60
2023-01-21T11:13:56.530Z,9.73
2023-01-21T11:16:36.671Z,10.11
2023-01-21T11:19:06.690Z,10.18
2023-01-21T11:21:40.064Z,10.47
2023-01-21T11:24:21.528Z,10.56
2023-01-21T11:26:54.608Z,10.66
2023-01-21T11:29:24.315Z,10.86
2023-01-21T11:31:54.152Z,10.92
2023-01-21T11:34:24.172Z,10.91
2023-01-21T11:37:00.037Z,10.94
2023-01-21T11:39:29.979Z,10.99
2023-01-21T11:42:04.339Z,10.80
2023-01-21T11:44:33.590Z,11.16
2023-01-21T11:47:01.873Z,11.17
2023-01-21T11:49:32.842Z,11.22
2023-01-21T11:52:18.729Z,11.31
2023-01-21T11:54:47.766Z,11.34
2023-01-21T11:57:26.977Z,11.31
2023-01-21T11:59:59.371Z,11.44
2023-01-21T12:02:30.831Z,11.51
2023-01-21T12:05:02.942Z,11.33
2023-01-21T12:07:33.785Z,11.32
2023-01-21T12:10:09.701Z,11.05
2023-01-21T12:12:51.103Z,11.21
2023-01-21T12:15:34.585Z,11.23
2023-01-21T12:18:11.541Z,11.17
2023-01-21T12:20:46.923Z,11.18
2023-01-21T12:23:29.411Z,11.33
2023-01-21T12:26:01.290Z,11.44
2023-01-21T12:28:50.574Z,11.44
2023-01-21T12:31:26.155Z,11.29
2023-01-21T12:34:00.279Z,11.39
2023-01-21T12:36:31.128Z,11.42
2023-01-21T12:39:15.867Z,11.37
2023-01-21T12:41:49.337Z,11.50
2023-01-21T12:44:28.022Z,11.62
2023-01-21T12:47:01.413Z,11.75
2023-01-21T12:49:45.898Z,11.74
2023-01-21T12:52:17.811Z,11.71
2023-01-21T12:54:54.670Z,11.70
2023-01-21T12:57:28.918Z,11.84
2023-01-21T13:00:03.907Z,11.74
2023-01-21T13:02:36.955Z,11.66
2023-01-21T13:05:13.763Z,11.66
2023-01-21T13:07:47.959Z,11.66
2023-01-21T13:10:21.036Z,11.64
2023-01-21T13:12:59.654Z,11.66
2023-01-21T13:15:33.453Z,11.56
2023-01-21T13:18:05.931Z,11.73
2023-01-21T13:20:40.394Z,11.90
2023-01-21T13:23:15.155Z,11.84
2023-01-21T13:25:51.761Z,11.75
2023-01-21T13:28:29.818Z,11.79
2023-01-21T13:31:07.916Z,11.88
2023-01-21T13:33:45.937Z,11.98
2023-01-21T13:36:27.644Z,11.95
2023-01-21T13:39:05.108Z,11.95
2023-01-21T13:41:51.630Z,12.03
2023-01-21T13:44:46.525Z,11.98
2023-01-21T13:47:31.042Z,12.16
2023-01-21T13:50:18.185Z,12.24
2023-01-21T13:53:00.170Z,12.19
2023-01-21T13:55:44.193Z,12.33
2023-01-21T13:58:15.784Z,12.32
2023-01-21T14:00:47.387Z,12.63
2023-01-21T14:03:26.675Z,12.61
2023-01-21T14:06:01.902Z,12.73
2023-01-21T14:08:34.635Z,12.80
2023-01-21T14:11:07.512Z,12.73
2023-01-21T14:14:25.898Z,12.73
2023-01-21T14:17:18.812Z,12.77
2023-01-21T14:20:09.994Z,12.74
2023-01-21T14:23:08.248Z,12.78
2023-01-21T14:25:51.376Z,12.70
2023-01-21T14:28:27.412Z,12.77
2023-01-21T14:31:02.559Z,12.68
2023-01-21T14:33:39.961Z,12.45
2023-01-21T14:36:18.498Z,12.47
2023-01-21T14:38:57.796Z,12.38
2023-01-21T14:41:25.758Z,12.33
2023-01-21T14:43:54.302Z,12.34
2023-01-21T14:46:28.866Z,12.30
2023-01-21T14:49:08.086Z,12.12
2023-01-21T14:51:39.283Z,12.06
2023-01-21T14:54:13.343Z,12.06
2023-01-21T14:56:41.199Z,12.14
2023-01-21T14:59:28.784Z,12.09
2023-01-21T15:02:01.570Z,11.87
2023-01-21T15:04:34.371Z,11.66
2023-01-21T15:07:10.267Z,11.65
2023-01-21T15:09:43.365Z,11.71
2023-01-21T15:12:18.981Z,11.76
2023-01-21T15:14:47.371Z,11.72
2023-01-21T15:17:46.492Z,11.57
2023-01-21T15:20:47.576Z,11.81
2023-01-21T15:23:39.643Z,11.82
2023-01-21T15:26:21.450Z,11.64
2023-01-21T15:28:52.081Z,11.46
2023-01-21T15:31:44.246Z,11.57
2023-01-21T15:34:16.145Z,11.44
2023-01-21T15:36:47.379Z,11.42
2023-01-21T15:39:19.091Z,11.29
2023-01-21T15:42:01.024Z,11.62
2023-01-21T15:44:48.612Z,11.62
2023-01-21T15:47:43.165Z,11.55
2023-01-21T15:50:21.982Z,11.44
2023-01-21T15:53:04.150Z,11.50
2023-01-21T15:55:51.412Z,11.44
2023-01-21T15:58:27.060Z,11.44
2023-01-21T16:01:05.844Z,11.65
2023-01-21T16:03:39.559Z,11.51
2023-01-21T16:06:23.837Z,11.48
2023-01-21T16:09:04.621Z,11.69
2023-01-21T16:11:53.947Z,11.80
2023-01-21T16:14:32.339Z,11.77
2023-01-21T16:17:13.507Z,11.90
2023-01-21T16:19:45.442Z,11.90
2023-01-21T16:22:16.278Z,11.86
2023-01-21T16:24:48.568Z,11.73
2023-01-21T16:27:23.986Z,11.58
2023-01-21T16:29:56.767Z,11.76
2023-01-21T16:32:24.857Z,11.62
2023-01-21T16:34:52.730Z,11.72
2023-01-21T16:37:23.599Z,11.84
2023-01-21T16:39:55.497Z,11.93
2023-01-21T16:42:36.252Z,11.87
2023-01-21T16:45:10.430Z,11.92
2023-01-21T16:47:38.643Z,11.97
2023-01-21T16:50:19.724Z,11.96
2023-01-21T16:52:47.882Z,11.96
2023-01-21T16:55:19.887Z,11.89
2023-01-21T16:57:52.137Z,11.90
2023-01-21T17:00:23.698Z,11.71
2023-01-21T17:02:52.842Z,11.78
2023-01-21T17:05:20.873Z,11.88
2023-01-21T17:07:52.930Z,11.76
2023-01-21T17:10:23.662Z,11.62
2023-01-21T17:12:57.031Z,11.56
2023-01-21T17:15:29.836Z,11.37
2023-01-21T17:17:59.709Z,11.32
2023-01-21T17:20:39.999Z,11.43
2023-01-21T17:23:11.321Z,11.36
2023-01-21T17:25:39.446Z,11.47
2023-01-21T17:28:19.118Z,11.45
2023-01-21T17:30:47.668Z,11.52
2023-01-21T17:33:30.511Z,11.40
2023-01-21T17:36:10.259Z,11.56
2023-01-21T17:38:42.283Z,11.37
2023-01-21T17:41:14.339Z,11.22
2023-01-21T17:43:51.207Z,11.24
2023-01-21T17:46:22.603Z,11.11
2023-01-21T17:48:53.169Z,11.02
2023-01-21T17:51:24.744Z,11.18
2023-01-21T17:53:56.528Z,11.13
2023-01-21T17:56:40.159Z,11.11
2023-01-21T17:59:37.811Z,11.05
2023-01-21T18:02:10.760Z,11.01
2023-01-21T18:04:38.759Z,10.97
2023-01-21T18:07:15.896Z,10.74
2023-01-21T18:09:45.121Z,10.79
2023-01-21T18:12:13.696Z,10.70
2023-01-21T18:14:43.539Z,10.79
2023-01-21T18:17:18.138Z,10.77
2023-01-21T18:19:46.549Z,10.77
2023-01-21T18:22:23.204Z,10.54
2023-01-21T18:24:51.567Z,10.40
2023-01-21T18:27:21.040Z,10.57
2023-01-21T18:29:52.193Z,10.58
2023-01-21T18:32:20.305Z,10.55
2023-01-21T18:34:48.581Z,10.69
2023-01-21T18:37:18.560Z,10.57
2023-01-21T18:39:46.662Z,10.55
2023-01-21T18:42:16.158Z,10.69
2023-01-21T18:44:45.046Z,10.75
2023-01-21T18:47:17.136Z,10.81
2023-01-21T18:49:45.535Z,10.68
2023-01-21T18:52:16.125Z,10.68
2023-01-21T18:54:44.139Z,10.53
2023-01-21T18:57:13.288Z,10.48
2023-01-21T18:59:41.436Z,10.47
2023-01-21T19:02:17.204Z,10.48
2023-01-21T19:04:46.559Z,10.50
2023-01-21T19:07:16.426Z,10.45
2023-01-21T19:09:46.536Z,10.49
2023-01-21T19:12:15.672Z,10.49
2023-01-21T19:14:43.882Z,10.41
2023-01-21T19:17:14.950Z,10.16
2023-01-21T19:19:44.153Z,10.05
2023-01-21T19:22:15.760Z,10.09
2023-01-21T19:24:44.756Z,10.11
2023-01-21T19:27:18.276Z,10.11
2023-01-21T19:29:47.300Z,10.10
2023-01-21T19:32:17.822Z,10.04
2023-01-21T19:34:46.548Z,10.03
2023-01-21T19:37:16.782Z,9.96
2023-01-21T19:39:45.772Z,9.78
2023-01-21T19:42:16.580Z,9.69
2023-01-21T19:44:45.264Z,9.84
2023-01-21T19:47:21.975Z,10.06
2023-01-21T19:49:50.853Z,10.12
2023-01-21T19:52:19.142Z,10.01
2023-01-21T19:54:47.123Z,10.06
2023-01-21T19:57:15.993Z,10.28
2023-01-21T19:59:46.635Z,10.37
2023-01-21T20:02:17.617Z,10.38
2023-01-21T20:04:46.777Z,10.31
2023-01-21T20:07:17.009Z,10.37
2023-01-21T20:09:46.189Z,10.49
2023-01-21T20:12:14.248Z,10.44
2023-01-21T20:14:42.280Z,10.57
2023-01-21T20:17:14.007Z,10.52
2023-01-21T20:19:43.693Z,10.63
2023-01-21T20:22:13.563Z,10.63
2023-01-21T20:24:41.969Z,10.77
2023-01-21T20:27:14.630Z,10.71
2023-01-21T20:29:49.670Z,10.79
2023-01-21T20:32:23.697Z,10.81
2023-01-21T20:34:53.068Z,10.74
2023-01-21T20:37:21.164Z,10.82
2023-01-21T20:39:49.155Z,10.81
2023-01-21T20:42:17.105Z,10.68
2023-01-21T20:44:45.063Z,10.65
2023-01-21T20:47:13.479Z,10.79
2023-01-21T20:49:41.486Z,10.54
2023-01-21T20:52:12.366Z,10.59
2023-01-21T20:54:40.431Z,10.61
2023-01-21T20:57:13.377Z,10.57
2023-01-21T20:59:41.345Z,10.81
2023-01-21T21:02:12.680Z,10.79
2023-01-21T21:04:40.985Z,10.83
2023-01-21T21:07:15.531Z,10.88
2023-01-21T21:09:43.474Z,10.97
2023-01-21T21:12:11.495Z,11.11
2023-01-21T21:14:39.420Z,11.17
2023-01-21T21:17:11.701Z,11.06
2023-01-21T21:19:39.598Z,11.14
2023-01-21T21:22:07.869Z,11.28
2023-01-21T21:24:37.187Z,11.27
2023-01-21T21:27:05.198Z,11.40
2023-01-21T21:29:33.111Z,11.34
2023-01-21T21:32:02.242Z,11.43
2023-01-21T21:34:30.190Z,11.46
2023-01-21T21:36:58.053Z,11.50
2023-01-21T21:39:25.960Z,11.57
2023-01-21T21:42:09.106Z,11.42
2023-01-21T21:44:39.011Z,11.53
2023-01-21T21:47:24.135Z,11.52
2023-01-21T21:49:52.018Z,11.43
2023-01-21T21:52:19.949Z,11.48
2023-01-21T21:54:47.885Z,11.53
2023-01-21T21:57:17.181Z,11.53
2023-01-21T21:59:45.150Z,11.50
2023-01-21T22:02:13.517Z,11.59
2023-01-21T22:04:41.471Z,11.54
2023-01-21T22:07:09.376Z,11.46
2023-01-21T22:09:37.279Z,11.56
2023-01-21T22:12:05.711Z,11.43
2023-01-21T22:14:35.019Z,11.40
2023-01-21T22:17:02.995Z,11.43
2023-01-21T22:19:30.947Z,11.48
2023-01-21T22:21:58.838Z,11.44
2023-01-21T22:24:26.751Z,11.30
2023-01-21T22:26:54.637Z,11.26
2023-01-21T22:29:22.570Z,11.21
2023-01-21T22:31:51.972Z,11.30
2023-01-21T22:34:19.935Z,11.35
2023-01-21T22:36:48.272Z,11.36
2023-01-21T22:39:16.389Z,11.24
2023-01-21T22:41:44.413Z,11.17
2023-01-21T22:44:12.332Z,11.15
2023-01-21T22:46:40.272Z,11.16
2023-01-21T22:49:11.622Z,11.10
2023-01-21T22:51:39.548Z,11.11
2023-01-21T22:54:07.681Z,11.14
2023-01-21T22:56:51.259Z,11.07
2023-01-21T22:59:20.436Z,11.05
2023-01-21T23:01:48.859Z,11.05
2023-01-21T23:04:18.220Z,11.13
2023-01-21T23:06:48.624Z,11.08
2023-01-21T23:09:17.048Z,11.18
2023-01-21T23:11:45.462Z,11.19
2023-01-21T23:14:13.518Z,11.15
2023-01-21T23:16:41.412Z,11.14
2023-01-21T23:19:09.286Z,11.09
2023-01-21T23:21:38.810Z,11.00
2023-01-21T23:24:07.389Z,11.12
2023-01-21T23:26:35.353Z,11.18
2023-01-21T23:29:03.283Z,11.27
2023-01-21T23:31:31.289Z,11.23
2023-01-21T23:33:59.356Z,11.19
2023-01-21T23:36:27.275Z,11.23
2023-01-21T23:38:56.647Z,11.13
2023-01-21T23:41:24.576Z,11.10
2023-01-21T23:43:52.482Z,11.08
2023-01-21T23:46:20.570Z,11.19
2023-01-21T23:48:49.098Z,11.24
2023-01-21T23:51:18.808Z,11.26
2023-01-21T23:53:47.704Z,11.24
2023-01-21T23:56:20.451Z,11.25
2023-01-21T23:58:48.736Z,11.13
